KGJT/GJT METAR and TAF weather

Enter ICAO airport designator
Station Type Date Time Source
KGJT METAR 2019/06/17 05:53 UTC NOAA

KGJT 170553Z AUTO 08004KT 10SM BKN110 20/04 A2998 RMK AO2 SLP083 60000 T02000044 10278 20200 51009


Station Type Date Time Source
KGJT Decoded METAR 2019/06/17 05:53 UTC NOAA

GRAND JUNCTION WALKER FIELD, CO, United States (KGJT) 39-08N 108-32W 1452M
Jun 17, 2019 - 01:53 AM EDT / 2019.06.17 0553 UTC
Wind: from the E (080 degrees) at 5 MPH (4 KT):0
Visibility: 10 mile(s):0
Sky conditions: mostly cloudy
Temperature: 68.0 F (20.0 C)
Dew Point: 39.9 F (4.4 C)
Relative Humidity: 35%
Pressure (altimeter): 29.98 in. Hg (1015 hPa)
Pressure tendency: 0.03 inches (0.9 hPa) higher than three hours ago
ob: KGJT 170553Z AUTO 08004KT 10SM BKN110 20/04 A2998 RMK AO2 SLP083 60000 T02000044 10278 20200 51009
cycle: 6

Station Type Date Time Source
KGJT TAF 2019/06/17 06:27 UTC NOAA

TAF KGJT 170525Z 1706/1806 08006KT P6SM SCT100 OVC120
FM171400 13006KT P6SM SCT100 BKN120
FM171700 17006KT P6SM VCSH SCT090 BKN120
FM171900 28008KT P6SM VCSH SCT090 BKN100
FM180000 30011KT P6SM SCT090 BKN100

Example: see airport list